Time;durP1;ratioP1;P1;durP2;ratioP2;P2;SDS_P1;SDS_P2;PMS_P1;PMS_P2;Temp;Humidity;BMP_temperature;BMP_pressure;BME280_temperature;BME280_humidity;BME280_pressure;Samples;Min_cycle;Max_cycle;Signal;HPM_P1;HPM_P2
2022/01/06 00:00:42;;;;;;;15.38;8.18;;;;;;;4.22;100.00;98414.65;1684478;83;21122;-85
2022/01/06 00:03:08;;;;;;;24.92;11.45;;;;;;;4.22;100.00;98408.98;1705126;79;21086;-85
2022/01/06 00:05:35;;;;;;;19.50;9.73;;;;;;;4.19;100.00;98406.50;1698970;83;21516;-85
2022/01/06 00:08:02;;;;;;;22.02;10.72;;;;;;;4.19;100.00;98422.13;1702738;83;21036;-85
2022/01/06 00:10:30;;;;;;;21.00;11.20;;;;;;;4.14;100.00;98444.88;1695681;84;21056;-86
2022/01/06 00:15:32;;;;;;;17.30;9.83;;;;;;;4.12;100.00;98458.45;1698236;84;21075;-85
2022/01/06 00:25:49;;;;;;;11.38;7.03;;;;;;;4.04;100.00;98460.48;1705911;83;21142;-86
2022/01/06 00:28:17;;;;;;;13.43;6.45;;;;;;;4.01;100.00;98461.91;1678045;84;21184;-88
2022/01/06 00:30:44;;;;;;;13.68;7.30;;;;;;;3.95;100.00;98466.41;1692506;83;21009;-87
2022/01/06 00:33:11;;;;;;;11.53;7.58;;;;;;;3.91;100.00;98466.15;1717216;83;21037;-86
2022/01/06 00:35:38;;;;;;;11.38;6.22;;;;;;;3.87;100.00;98463.25;1698272;80;21028;-86
2022/01/06 00:38:06;;;;;;;10.53;6.58;;;;;;;3.84;100.00;98458.13;1701236;80;21125;-85
2022/01/06 00:40:34;;;;;;;8.75;5.62;;;;;;;3.81;100.00;98456.11;1687844;83;21126;-86
2022/01/06 00:43:03;;;;;;;10.50;6.65;;;;;;;3.77;100.00;98457.54;1684617;83;21083;-86
2022/01/06 00:45:30;;;;;;;8.25;5.85;;;;;;;3.78;100.00;98468.80;1684391;83;21073;-84
2022/01/06 00:47:57;;;;;;;9.53;6.65;;;;;;;3.77;100.00;98473.16;1686107;83;21190;-87
2022/01/06 00:50:24;;;;;;;14.35;6.92;;;;;;;3.79;100.00;98483.50;1709749;80;21068;-87
2022/01/06 00:52:51;;;;;;;10.38;5.47;;;;;;;3.79;100.00;98476.98;1687354;84;21101;-86
2022/01/06 00:55:17;;;;;;;8.33;5.53;;;;;;;3.76;100.00;98471.44;1720513;83;21066;-86
2022/01/06 00:57:43;;;;;;;7.80;5.47;;;;;;;3.75;100.00;98474.09;1719826;83;21034;-86
2022/01/06 01:00:10;;;;;;;8.40;5.20;;;;;;;3.76;100.00;98471.44;1718202;83;21101;-85
2022/01/06 01:02:37;;;;;;;7.78;4.75;;;;;;;3.79;100.00;98471.78;1696001;83;21117;-86
2022/01/06 01:05:04;;;;;;;6.78;4.83;;;;;;;3.78;100.00;98468.80;1705290;83;21066;-85
2022/01/06 01:07:31;;;;;;;7.87;4.95;;;;;;;3.80;100.00;98477.41;1708473;82;21054;-87
2022/01/06 01:09:58;;;;;;;8.65;5.03;;;;;;;3.82;100.00;98483.41;1702937;83;21047;-85
2022/01/06 01:12:26;;;;;;;6.00;4.22;;;;;;;3.83;100.00;98486.39;1691507;84;21064;-87
2022/01/06 01:14:59;;;;;;;6.37;4.35;;;;;;;3.84;100.00;98480.27;1690471;84;21156;-85
2022/01/06 01:17:26;;;;;;;6.78;4.35;;;;;;;3.86;100.00;98490.18;1663272;85;21582;-85
2022/01/06 01:19:53;;;;;;;6.12;4.10;;;;;;;3.85;100.00;98487.20;1719330;83;21073;-87
2022/01/06 01:22:21;;;;;;;6.72;4.80;;;;;;;3.83;100.00;98482.49;1719651;83;21050;-86
2022/01/06 01:24:47;;;;;;;5.80;4.50;;;;;;;3.84;100.00;98482.03;1719846;83;21562;-85
2022/01/06 01:30:54;;;;;;;8.53;5.07;;;;;;;3.90;100.00;98488.33;1784366;79;26541;-68
2022/01/06 01:33:15;;;;;;;6.95;4.40;;;;;;;3.84;100.00;98481.57;1726206;82;21092;-65
2022/01/06 01:35:40;;;;;;;7.10;4.37;;;;;;;3.84;100.00;98481.57;1725215;82;21209;-67
2022/01/06 01:38:08;;;;;;;9.75;4.75;;;;;;;3.86;100.00;98496.69;1745031;81;21048;-67
2022/01/06 01:40:39;;;;;;;6.30;4.15;;;;;;;3.84;100.00;98505.01;1755645;81;21532;-66
2022/01/06 01:43:05;;;;;;;7.37;4.33;;;;;;;3.80;100.00;98494.33;1755897;80;21057;-66
2022/01/06 01:45:33;;;;;;;7.90;4.20;;;;;;;3.77;100.00;98496.59;1755744;80;21096;-65
2022/01/06 01:48:06;;;;;;;5.62;3.87;;;;;;;3.74;100.00;98493.23;1755895;81;21212;-68
2022/01/06 01:50:30;;;;;;;7.12;3.70;;;;;;;3.71;100.00;98488.14;1755999;80;21369;-67
2022/01/06 01:52:58;;;;;;;6.35;3.70;;;;;;;3.69;100.00;98492.55;1756222;81;20957;-68
2022/01/06 01:55:29;;;;;;;7.62;3.42;;;;;;;3.64;100.00;98481.46;1766414;80;21072;-69
2022/01/06 01:57:57;;;;;;;4.58;3.02;;;;;;;3.60;100.00;98489.81;1755700;81;21173;-65
2022/01/06 02:00:27;;;;;;;4.78;2.85;;;;;;;3.62;100.00;98497.13;1766495;80;21271;-65
2022/01/06 02:02:56;;;;;;;6.25;3.45;;;;;;;3.61;100.00;98506.28;1742379;81;21088;-67
2022/01/06 02:05:26;;;;;;;4.20;3.00;;;;;;;3.61;100.00;98493.27;1725553;83;21033;-64
2022/01/06 02:07:55;;;;;;;4.60;3.17;;;;;;;3.60;100.00;98496.78;1727720;81;28385;-68
2022/01/06 02:10:24;;;;;;;5.85;3.33;;;;;;;3.58;100.00;98497.67;1753487;81;21057;-66
2022/01/06 02:12:53;;;;;;;7.10;3.47;;;;;;;3.60;100.00;98492.87;1749197;81;21125;-66
2022/01/06 02:15:19;;;;;;;5.35;3.75;;;;;;;3.62;100.00;98496.28;1729452;81;21081;-66
2022/01/06 02:17:48;;;;;;;6.50;3.40;;;;;;;3.63;100.00;98481.05;1747279;81;21095;-67
2022/01/06 02:20:18;;;;;;;6.00;3.95;;;;;;;3.63;100.00;98484.95;1737558;80;21083;-67
2022/01/06 02:22:44;;;;;;;6.40;4.17;;;;;;;3.62;100.00;98476.30;1741908;80;21191;-67
2022/01/06 02:25:18;;;;;;;7.00;4.50;;;;;;;3.61;100.00;98472.44;1747521;81;21229;-67
2022/01/06 02:27:50;;;;;;;5.83;4.10;;;;;;;3.62;100.00;98484.56;1735357;81;21107;-65
2022/01/06 02:30:17;;;;;;;;;;;;;;;3.60;100.00;98494.18;1736929;82;21037;-67
2022/01/06 02:32:43;;;;;;;9.53;4.05;;;;;;;3.57;100.00;98502.48;1718039;82;20189;-65
2022/01/06 02:35:16;;;;;;;8.13;4.78;;;;;;;3.55;100.00;98512.10;1712207;82;21070;-66
2022/01/06 02:37:45;;;;;;;7.80;4.90;;;;;;;3.53;100.00;98523.02;1712592;83;21139;-67
2022/01/06 02:40:15;;;;;;;9.43;5.58;;;;;;;3.49;100.00;98532.28;1714011;83;22192;-65
2022/01/06 02:42:44;;;;;;;8.60;5.55;;;;;;;3.44;100.00;98537.64;1718051;82;21083;-66
2022/01/06 02:45:11;;;;;;;8.78;6.03;;;;;;;3.42;100.00;98544.64;1717633;82;21433;-66
2022/01/06 02:47:40;;;;;;;10.25;6.03;;;;;;;3.40;100.00;98560.75;1717875;83;21077;-64
2022/01/06 02:50:08;;;;;;;10.23;5.85;;;;;;;3.38;100.00;98563.86;1717424;83;21774;-66
2022/01/06 02:52:35;;;;;;;10.05;5.95;;;;;;;3.39;100.00;98562.97;1718083;83;21064;-66
2022/01/06 02:55:03;;;;;;;12.95;6.40;;;;;;;3.41;100.00;98558.57;1717619;83;21100;-65
2022/01/06 02:57:29;;;;;;;14.70;6.83;;;;;;;3.45;100.00;98558.88;1689605;83;21108;-66
2022/01/06 02:59:56;;;;;;;11.55;6.85;;;;;;;3.47;100.00;98558.34;1717442;83;21053;-66
2022/01/06 03:02:24;;;;;;;8.43;5.30;;;;;;;3.50;100.00;98557.42;1717788;83;21152;-66
2022/01/06 03:04:53;;;;;;;8.50;5.70;;;;;;;3.51;100.00;98569.06;1717586;83;21729;-66
2022/01/06 03:07:20;;;;;;;11.18;5.83;;;;;;;3.47;100.00;98572.66;1717523;83;21138;-65
2022/01/06 03:09:53;;;;;;;8.00;5.37;;;;;;;3.54;100.00;98580.70;1717704;83;21045;-66
2022/01/06 03:12:28;;;;;;;7.58;4.67;;;;;;;3.55;100.00;98586.28;1717273;83;24334;-65
2022/01/06 03:14:48;;;;;;;;;;;;;;;3.57;100.00;98577.14;1718356;83;21338;-67
2022/01/06 03:17:14;;;;;;;7.25;4.75;;;;;;;3.57;100.00;98584.95;1717826;83;20532;-65
2022/01/06 03:19:41;;;;;;;9.83;5.85;;;;;;;3.55;100.00;98591.49;1683053;83;21087;-67
2022/01/06 03:22:08;;;;;;;12.53;5.12;;;;;;;3.56;100.00;98590.58;1717574;82;21547;-67
2022/01/06 03:24:34;;;;;;;7.72;5.03;;;;;;;3.56;100.00;98577.56;1722819;82;21104;-66
2022/01/06 03:27:03;;;;;;;7.10;4.85;;;;;;;3.57;100.00;98580.58;1717224;83;21116;-66
2022/01/06 03:29:32;;;;;;;7.10;4.87;;;;;;;3.56;100.00;98586.67;1723769;80;21139;-66
2022/01/06 03:32:00;;;;;;;8.13;4.75;;;;;;;3.57;100.00;98590.99;1741948;82;21072;-65
2022/01/06 03:34:30;;;;;;;9.68;5.20;;;;;;;3.57;100.00;98588.39;1742271;82;21557;-65
2022/01/06 03:36:57;;;;;;;8.45;5.55;;;;;;;3.56;100.00;98584.06;1742101;82;21128;-66
2022/01/06 03:39:24;;;;;;;11.65;6.22;;;;;;;3.57;100.00;98577.14;1742138;82;21128;-66
2022/01/06 03:41:55;;;;;;;7.35;5.05;;;;;;;3.56;100.00;98573.66;1742056;82;20967;-66
2022/01/06 03:44:21;;;;;;;8.70;5.95;;;;;;;3.54;100.00;98579.39;1742265;81;21062;-67
2022/01/06 03:46:48;;;;;;;9.85;5.87;;;;;;;3.55;100.00;98574.57;1741938;82;21073;-67
2022/01/06 03:49:15;;;;;;;9.90;5.97;;;;;;;3.53;100.00;98586.78;1742257;82;21051;-65
2022/01/06 03:51:42;;;;;;;9.10;5.72;;;;;;;3.49;100.00;98585.17;1742076;82;21104;-66
2022/01/06 03:54:08;;;;;;;10.95;6.53;;;;;;;3.48;100.00;98579.59;1741890;82;21014;-67
2022/01/06 03:56:36;;;;;;;11.00;7.17;;;;;;;3.50;100.00;98581.69;1742049;82;21084;-67
2022/01/06 03:59:03;;;;;;;8.95;5.15;;;;;;;3.50;100.00;98579.09;1742985;82;21386;-68
2022/01/06 04:01:29;;;;;;;11.08;6.20;;;;;;;3.47;100.00;98584.37;1742078;82;21050;-67
2022/01/06 04:03:55;;;;;;;9.78;6.35;;;;;;;3.53;100.00;98586.78;1742352;82;21096;-67
2022/01/06 04:06:23;;;;;;;12.40;6.58;;;;;;;3.57;100.00;98578.44;1741871;82;21037;-66
2022/01/06 04:08:50;;;;;;;8.60;5.97;;;;;;;3.58;100.00;98573.16;1742291;82;21041;-69
2022/01/06 04:11:17;;;;;;;9.30;5.80;;;;;;;3.63;100.00;98582.57;1743691;82;20970;-69
2022/01/06 04:13:44;;;;;;;12.98;6.50;;;;;;;3.64;100.00;98594.70;1746432;82;21034;-69
2022/01/06 04:16:14;;;;;;;12.35;6.78;;;;;;;3.65;100.00;98593.79;1741910;82;21801;-67
2022/01/06 04:18:40;;;;;;;9.30;6.12;;;;;;;3.64;100.00;98593.41;1742077;82;21026;-78
2022/01/06 04:21:07;;;;;;;9.93;6.72;;;;;;;3.65;100.00;98589.88;1741882;81;21453;-76
2022/01/06 04:23:34;;;;;;;15.60;8.70;;;;;;;3.67;100.00;98595.89;1742282;81;21557;-77
2022/01/06 04:26:01;;;;;;;12.43;7.00;;;;;;;3.66;100.00;98596.78;1741712;82;21049;-76
2022/01/06 04:28:27;;;;;;;13.55;7.92;;;;;;;3.65;100.00;98591.19;1732816;82;21114;-74
2022/01/06 04:30:55;;;;;;;13.60;7.37;;;;;;;3.66;100.00;98603.28;1735664;82;21066;-76
2022/01/06 04:33:23;;;;;;;15.60;7.42;;;;;;;3.66;100.00;98607.19;1738049;82;21034;-78
2022/01/06 04:35:51;;;;;;;12.45;7.05;;;;;;;3.65;100.00;98610.71;1738119;82;21046;-78
2022/01/06 04:38:22;;;;;;;13.18;7.62;;;;;;;3.65;100.00;98625.03;1738166;82;21707;-77
2022/01/06 04:40:50;;;;;;;10.48;6.03;;;;;;;3.67;100.00;98637.55;1731968;82;21168;-78
2022/01/06 04:43:17;;;;;;;10.70;6.45;;;;;;;3.69;100.00;98631.84;1722519;82;20982;-77
2022/01/06 04:45:44;;;;;;;10.70;6.08;;;;;;;3.70;100.00;98632.23;1722468;82;21003;-76
2022/01/06 04:48:12;;;;;;;9.58;6.00;;;;;;;3.71;100.00;98631.34;1722502;83;21572;-75
2022/01/06 04:50:41;;;;;;;8.65;5.67;;;;;;;3.74;100.00;98637.74;1718789;83;21104;-77
2022/01/06 04:53:08;;;;;;;9.33;6.30;;;;;;;3.74;100.00;98640.34;1717530;83;21158;-74
2022/01/06 04:55:35;;;;;;;8.05;5.83;;;;;;;3.74;100.00;98635.98;1717369;83;21096;-73
2022/01/06 04:58:01;;;;;;;7.47;5.50;;;;;;;3.75;100.00;98642.03;1717893;83;21056;-72
2022/01/06 05:00:29;;;;;;;9.45;5.45;;;;;;;3.76;100.00;98642.45;1717667;83;21044;-72
2022/01/06 05:02:56;;;;;;;8.78;5.97;;;;;;;3.79;100.00;98641.03;1717728;83;21036;-72
2022/01/06 05:05:22;;;;;;;8.75;5.40;;;;;;;3.79;100.00;98631.92;1717635;83;21381;-71
2022/01/06 05:07:49;;;;;;;9.15;5.80;;;;;;;3.79;100.00;98627.56;1727351;82;21030;-72
2022/01/06 05:10:15;;;;;;;9.48;6.05;;;;;;;3.81;100.00;98632.73;1734556;82;21076;-72
2022/01/06 05:12:44;;;;;;;9.98;5.60;;;;;;;3.83;100.00;98641.34;1725613;82;21076;-73
2022/01/06 05:15:13;;;;;;;7.85;5.03;;;;;;;3.83;100.00;98635.29;1710981;82;21635;-72
2022/01/06 05:17:42;;;;;;;7.95;5.25;;;;;;;3.83;100.00;98637.44;1733124;82;21158;-71
2022/01/06 05:20:10;;;;;;;9.13;5.20;;;;;;;3.84;100.00;98645.64;1727612;82;21069;-75
2022/01/06 05:22:43;;;;;;;7.47;5.15;;;;;;;3.84;100.00;98652.14;1743900;81;21096;-73
2022/01/06 05:25:07;;;;;;;7.42;4.90;;;;;;;3.87;100.00;98653.37;1742088;82;21510;-75
2022/01/06 05:27:37;;;;;;;10.13;5.35;;;;;;;3.85;100.00;98655.17;1747000;82;21053;-72
2022/01/06 05:30:09;;;;;;;6.92;4.70;;;;;;;3.87;100.00;98659.87;1746684;80;21452;-71
2022/01/06 05:32:38;;;;;;;8.48;5.80;;;;;;;3.87;100.00;98657.27;1739035;82;21044;-73
2022/01/06 05:35:07;;;;;;;9.38;5.03;;;;;;;3.88;100.00;98660.27;1720099;83;21518;-70
2022/01/06 05:37:35;;;;;;;7.37;4.87;;;;;;;3.88;100.00;98664.17;1720253;82;21684;-71
2022/01/06 05:40:03;;;;;;;7.67;5.60;;;;;;;3.88;100.00;98672.44;1720231;83;21073;-71
2022/01/06 05:42:32;;;;;;;6.85;5.00;;;;;;;3.88;100.00;98681.09;1720267;82;21107;-72
2022/01/06 05:45:00;;;;;;;9.78;6.22;;;;;;;3.89;100.00;98686.73;1720269;83;21533;-70
2022/01/06 05:47:26;;;;;;;9.55;5.60;;;;;;;3.89;100.00;98688.03;1720341;83;21041;-70
2022/01/06 05:49:53;;;;;;;8.68;5.25;;;;;;;3.89;100.00;98688.03;1720356;83;21085;-73
2022/01/06 05:52:19;;;;;;;9.33;5.53;;;;;;;3.87;100.00;98688.52;1720143;83;21070;-73
2022/01/06 05:54:50;;;;;;;9.68;5.95;;;;;;;3.88;100.00;98696.72;1720027;83;21093;-72
2022/01/06 05:57:19;;;;;;;10.50;5.72;;;;;;;3.87;100.00;98695.03;1720123;83;21057;-69
2022/01/06 05:59:47;;;;;;;11.08;5.53;;;;;;;3.86;100.00;98698.52;1720060;83;21034;-68
2022/01/06 06:02:16;;;;;;;8.10;5.35;;;;;;;3.85;100.00;98698.14;1710218;82;21156;-68
2022/01/06 06:04:45;;;;;;;9.85;6.37;;;;;;;3.85;100.00;98708.55;1718687;82;21552;-67
2022/01/06 06:07:17;;;;;;;8.15;5.40;;;;;;;3.80;100.00;98714.38;1683638;85;22880;-68
2022/01/06 06:09:46;;;;;;;8.90;5.78;;;;;;;3.77;100.00;98719.66;1683785;85;21117;-68
2022/01/06 06:12:14;;;;;;;9.20;6.15;;;;;;;3.72;100.00;98713.75;1719501;83;21358;-68
2022/01/06 06:14:42;;;;;;;10.15;6.78;;;;;;;3.69;100.00;98719.06;1659475;85;21092;-68
2022/01/06 06:17:09;;;;;;;9.50;6.28;;;;;;;3.66;100.00;98726.95;1682843;84;21056;-68
2022/01/06 06:19:36;;;;;;;8.98;6.58;;;;;;;3.63;100.00;98720.55;1687916;84;21852;-67
2022/01/06 06:22:03;;;;;;;10.13;6.37;;;;;;;3.60;100.00;98729.31;1685664;83;21372;-74
2022/01/06 06:24:29;;;;;;;10.03;6.55;;;;;;;3.60;100.00;98728.01;1720678;82;21613;-72
2022/01/06 06:26:56;;;;;;;10.98;6.35;;;;;;;3.61;100.00;98739.27;1677441;85;21072;-73
2022/01/06 06:29:22;;;;;;;11.40;6.42;;;;;;;3.62;100.00;98740.98;1686538;83;21022;-73
2022/01/06 06:31:49;;;;;;;13.48;7.50;;;;;;;3.64;100.00;98739.19;1680570;85;21212;-74
2022/01/06 06:34:15;;;;;;;12.65;8.10;;;;;;;3.64;100.00;98733.53;1680004;85;21061;-74
2022/01/06 06:36:41;;;;;;;11.20;7.58;;;;;;;3.63;100.00;98739.62;1681256;85;21156;-72
2022/01/06 06:39:08;;;;;;;13.40;7.58;;;;;;;3.63;100.00;98746.58;1682186;84;21001;-71
2022/01/06 06:41:36;;;;;;;13.90;7.95;;;;;;;3.63;100.00;98749.19;1681599;84;21085;-74
2022/01/06 06:44:03;;;;;;;9.98;6.80;;;;;;;3.63;100.00;98759.14;1681746;84;21497;-74
2022/01/06 06:46:30;;;;;;;12.43;7.55;;;;;;;3.66;100.00;98767.30;1681889;84;21050;-73
2022/01/06 06:48:56;;;;;;;12.80;7.30;;;;;;;3.65;100.00;98768.22;1681151;84;21010;-75
2022/01/06 06:51:22;;;;;;;10.60;6.35;;;;;;;3.67;100.00;98770.33;1682934;84;21026;-73
2022/01/06 06:53:49;;;;;;;11.93;7.20;;;;;;;3.69;100.00;98768.53;1681959;84;21029;-73
2022/01/06 06:56:15;;;;;;;11.35;7.25;;;;;;;3.70;100.00;98764.56;1676875;84;21170;-73
2022/01/06 06:58:42;;;;;;;12.58;6.47;;;;;;;3.71;100.00;98771.48;1674077;84;21541;-73
2022/01/06 07:01:08;;;;;;;12.70;6.97;;;;;;;3.72;100.00;98773.64;1679980;84;21104;-74
2022/01/06 07:03:34;;;;;;;11.50;6.72;;;;;;;3.72;100.00;98778.84;1671596;84;21383;-75
2022/01/06 07:06:01;;;;;;;12.55;6.05;;;;;;;3.72;100.00;98781.45;1663253;85;21128;-75
2022/01/06 07:08:27;;;;;;;11.90;6.35;;;;;;;3.71;100.00;98774.55;1671425;84;21777;-74
2022/01/06 07:10:53;;;;;;;10.98;6.58;;;;;;;3.71;100.00;98782.36;1678257;84;21078;-74
2022/01/06 07:13:21;;;;;;;10.80;5.70;;;;;;;3.69;100.00;98791.97;1686920;84;21050;-74
2022/01/06 07:15:48;;;;;;;8.60;5.42;;;;;;;3.71;100.00;98801.89;1690441;84;21084;-73
2022/01/06 07:18:14;;;;;;;7.25;4.97;;;;;;;3.71;100.00;98801.89;1686753;84;21080;-74
2022/01/06 07:20:42;;;;;;;9.40;5.67;;;;;;;3.71;100.00;98808.40;1683214;83;21155;-74
2022/01/06 07:23:08;;;;;;;6.95;4.47;;;;;;;3.71;100.00;98803.19;1672552;84;21121;-75
2022/01/06 07:25:35;;;;;;;7.00;4.75;;;;;;;3.72;100.00;98810.94;1675771;84;21042;-76
2022/01/06 07:28:01;;;;;;;9.95;4.62;;;;;;;3.73;100.00;98820.92;1732216;82;21050;-77
2022/01/06 07:30:30;;;;;;;7.37;4.60;;;;;;;3.72;100.00;98836.13;1732418;82;21014;-73
2022/01/06 07:32:56;;;;;;;6.80;3.80;;;;;;;3.72;100.00;98828.31;1737242;82;21153;-75
2022/01/06 07:35:23;;;;;;;6.78;4.17;;;;;;;3.68;100.00;98831.91;1733251;82;21097;-74
2022/01/06 07:37:50;;;;;;;5.10;3.25;;;;;;;3.64;100.00;98819.44;1738824;81;21104;-76
2022/01/06 07:40:17;;;;;;;4.95;2.95;;;;;;;3.59;100.00;98830.45;1732304;82;21089;-76
2022/01/06 07:42:43;;;;;;;5.80;3.00;;;;;;;3.49;100.00;98828.54;1726686;81;21064;-76
2022/01/06 07:45:10;;;;;;;5.47;2.80;;;;;;;3.44;100.00;98828.28;1727531;82;21523;-77
2022/01/06 07:47:43;;;;;;;8.35;2.92;;;;;;;3.39;100.00;98825.81;1729004;82;21038;-77
2022/01/06 07:50:06;;;;;;;4.83;2.40;;;;;;;3.35;100.00;98826.79;1728981;82;21132;-76
2022/01/06 07:52:33;;;;;;;6.75;2.50;;;;;;;3.31;100.00;98823.86;1729882;82;21691;-76
2022/01/06 07:55:00;;;;;;;5.72;2.47;;;;;;;3.26;100.00;98828.35;1733226;82;21123;-75
2022/01/06 07:57:26;;;;;;;6.83;2.60;;;;;;;3.21;100.00;98836.73;1735849;82;22100;-75
2022/01/06 07:59:53;;;;;;;4.72;2.70;;;;;;;3.18;100.00;98840.28;1699865;83;21046;-75
2022/01/06 08:02:22;;;;;;;5.87;2.85;;;;;;;3.17;100.00;98837.72;1731418;82;21100;-74
2022/01/06 08:04:50;;;;;;;4.95;2.75;;;;;;;3.14;100.00;98839.50;1721139;82;21049;-71
2022/01/06 08:07:16;;;;;;;7.58;3.17;;;;;;;3.11;100.00;98852.60;1734156;81;21146;-74
2022/01/06 08:09:45;;;;;;;5.83;2.75;;;;;;;3.06;100.00;98850.58;1734326;82;21156;-73
2022/01/06 08:12:12;;;;;;;7.35;2.45;;;;;;;3.03;100.00;98859.74;1734946;82;21081;-72
2022/01/06 08:14:39;;;;;;;7.53;3.02;;;;;;;3.02;100.00;98865.86;1731433;82;21130;-72
2022/01/06 08:17:05;;;;;;;4.47;2.40;;;;;;;3.01;100.00;98860.23;1699130;83;21058;-72
2022/01/06 08:19:33;;;;;;;5.53;2.50;;;;;;;3.04;100.00;98876.23;1739682;80;22209;-68
2022/01/06 08:21:59;;;;;;;6.83;2.58;;;;;;;3.03;100.00;98868.00;1732461;82;21057;-72
2022/01/06 08:24:26;;;;;;;9.53;2.65;;;;;;;3.05;100.00;98865.77;1722704;82;21049;-73
2022/01/06 08:26:57;;;;;;;4.70;2.75;;;;;;;3.07;100.00;98870.94;1717928;82;21079;-74
2022/01/06 08:29:24;;;;;;;9.95;3.10;;;;;;;3.09;100.00;98864.80;1725811;82;21064;-74
2022/01/06 08:31:51;;;;;;;5.62;2.58;;;;;;;3.00;100.00;98844.69;1714625;81;21059;-75
2022/01/06 08:34:20;;;;;;;4.72;2.72;;;;;;;3.12;100.00;98864.70;1716186;82;22292;-74
2022/01/06 08:36:52;;;;;;;9.50;3.20;;;;;;;3.18;100.00;98865.45;1715946;82;21047;-73
2022/01/06 08:39:15;;;;;;;8.25;3.47;;;;;;;3.22;100.00;98863.15;1715904;82;21494;-74
2022/01/06 08:41:42;;;;;;;9.53;3.02;;;;;;;3.26;100.00;98875.19;1711454;82;21044;-74
2022/01/06 08:44:11;;;;;;;6.95;3.10;;;;;;;3.29;100.00;98876.39;1713686;82;21084;-73
2022/01/06 08:46:38;;;;;;;11.08;3.45;;;;;;;3.32;100.00;98880.23;1734896;82;21575;-71
2022/01/06 08:49:06;;;;;;;8.65;3.85;;;;;;;3.40;100.00;98883.91;1714650;82;21033;-71
2022/01/06 08:51:33;;;;;;;11.33;3.25;;;;;;;3.49;100.00;98891.01;1709280;82;21038;-71
2022/01/06 08:54:00;;;;;;;9.80;3.67;;;;;;;3.63;100.00;98898.88;1724787;82;21546;-72
2022/01/06 08:56:28;;;;;;;10.68;3.50;;;;;;;3.70;100.00;98895.20;1680516;82;21070;-72
2022/01/06 08:58:55;;;;;;;6.83;3.22;;;;;;;3.71;100.00;98904.73;1721827;82;21540;-71
2022/01/06 09:01:22;;;;;;;8.08;3.42;;;;;;;3.74;100.00;98896.37;1727646;82;21069;-71
2022/01/06 09:03:51;;;;;;;7.28;3.20;;;;;;;3.81;100.00;98896.20;1715931;82;21146;-71
2022/01/06 09:06:18;;;;;;;7.20;3.52;;;;;;;3.90;100.00;98909.80;1715215;82;21024;-73
2022/01/06 09:08:48;;;;;;;9.75;3.83;;;;;;;4.03;100.00;98897.28;1670695;84;21034;-71
2022/01/06 09:11:15;;;;;;;8.88;3.92;;;;;;;4.19;100.00;98906.79;1645850;86;21140;-72
2022/01/06 09:13:41;;;;;;;8.90;4.10;;;;;;;4.38;100.00;98910.52;1709428;83;21579;-71
2022/01/06 09:16:08;;;;;;;12.68;4.53;;;;;;;4.48;100.00;98912.84;1713070;82;21087;-72
2022/01/06 09:18:38;;;;;;;6.17;3.58;;;;;;;4.55;100.00;98905.22;1697972;83;21070;-73
2022/01/06 09:21:05;;;;;;;9.65;3.87;;;;;;;4.68;99.41;98918.27;1701270;84;21086;-71
2022/01/06 09:23:32;;;;;;;8.05;4.00;;;;;;;4.90;99.97;98914.95;1684773;84;21086;-72
2022/01/06 09:25:59;;;;;;;9.95;4.58;;;;;;;5.15;98.51;98910.59;1682833;84;21564;-73
2022/01/06 09:28:26;;;;;;;9.13;4.90;;;;;;;5.28;95.46;98918.87;1685455;84;21061;-72
2022/01/06 09:30:53;;;;;;;10.93;4.62;;;;;;;5.30;90.77;98927.97;1684639;84;21567;-73
2022/01/06 09:33:20;;;;;;;9.33;4.67;;;;;;;5.28;88.56;98931.08;1694986;82;21047;-73
2022/01/06 09:35:47;;;;;;;9.45;3.60;;;;;;;5.37;91.32;98942.05;1693386;84;21511;-73
2022/01/06 09:38:14;;;;;;;17.55;4.37;;;;;;;5.61;90.74;98942.95;1675730;84;21069;-72
2022/01/06 09:40:42;;;;;;;9.58;3.30;;;;;;;5.96;90.34;98931.70;1700228;84;21044;-72
2022/01/06 09:43:11;;;;;;;8.45;3.65;;;;;;;6.31;87.04;98930.81;1688154;84;21125;-72
2022/01/06 09:45:37;;;;;;;7.00;3.12;;;;;;;6.54;86.75;98926.45;1700150;84;20987;-72
2022/01/06 09:48:05;;;;;;;11.50;3.72;;;;;;;6.56;86.44;98915.01;1707323;84;21137;-71
2022/01/06 09:50:32;;;;;;;9.88;3.20;;;;;;;6.40;83.52;98918.69;1707672;84;21042;-74
2022/01/06 09:52:58;;;;;;;7.40;3.42;;;;;;;6.17;82.05;98918.73;1707913;84;21597;-73
2022/01/06 09:55:25;;;;;;;7.95;2.95;;;;;;;5.99;83.59;98923.73;1703167;83;21095;-73
2022/01/06 09:57:59;;;;;;;7.78;3.10;;;;;;;5.81;82.60;98925.70;1694169;84;21072;-72
2022/01/06 10:00:30;;;;;;;5.30;2.83;;;;;;;5.61;82.18;98924.67;1693929;84;21263;-72
2022/01/06 10:03:01;;;;;;;7.45;3.15;;;;;;;5.44;84.14;98942.23;1694291;84;21017;-72
2022/01/06 10:05:40;;;;;;;7.30;3.23;;;;;;;5.29;84.73;98952.34;1695174;84;21526;-72
2022/01/06 10:08:09;;;;;;;10.08;3.70;;;;;;;5.21;85.61;98942.18;1695267;83;21054;-73
2022/01/06 10:10:38;;;;;;;8.75;3.47;;;;;;;5.19;86.40;98933.09;1695694;84;21058;-71
2022/01/06 10:13:08;;;;;;;8.13;3.35;;;;;;;5.22;86.46;98921.25;1695764;84;21499;-72
2022/01/06 10:15:33;;;;;;;8.88;3.75;;;;;;;5.32;86.93;98919.63;1695515;83;21079;-71
2022/01/06 10:18:12;;;;;;;6.55;3.40;;;;;;;5.51;87.64;98925.89;1688179;85;21076;-72
2022/01/06 10:20:39;;;;;;;8.38;4.20;;;;;;;5.75;85.77;98933.75;1687802;85;21045;-73
2022/01/06 10:23:13;;;;;;;10.60;3.85;;;;;;;5.99;82.05;98947.25;1675187;84;21080;-72
2022/01/06 10:25:48;;;;;;;8.23;3.98;;;;;;;6.06;81.07;98933.51;1666898;84;21191;-75
2022/01/06 10:28:18;;;;;;;8.35;4.15;;;;;;;6.08;81.14;98937.77;1689817;84;21171;-74
2022/01/06 10:30:48;;;;;;;7.47;3.60;;;;;;;6.06;80.82;98930.44;1678693;84;21060;-71
2022/01/06 10:33:16;;;;;;;4.95;2.98;;;;;;;5.89;79.39;98922.36;1695109;83;21520;-74
2022/01/06 10:35:43;;;;;;;7.05;3.60;;;;;;;5.81;80.82;98920.47;1668675;84;21614;-75
2022/01/06 10:38:10;;;;;;;6.08;3.60;;;;;;;5.73;81.08;98918.15;1678673;82;21104;-74
2022/01/06 10:40:36;;;;;;;11.57;4.33;;;;;;;5.62;80.67;98915.92;1692516;84;21104;-74
2022/01/06 10:43:07;;;;;;;6.47;3.80;;;;;;;5.54;81.99;98902.73;1680669;82;21111;-74
2022/01/06 10:45:34;;;;;;;11.83;4.55;;;;;;;5.46;82.18;98903.02;1679667;84;21076;-74
2022/01/06 10:48:02;;;;;;;10.93;4.20;;;;;;;5.44;80.87;98920.03;1678979;84;21065;-74
2022/01/06 10:50:35;;;;;;;8.83;4.25;;;;;;;5.54;78.58;98913.17;1685962;84;21188;-73
2022/01/06 10:53:08;;;;;;;7.55;4.05;;;;;;;5.57;77.92;98906.09;1687186;84;21020;-72
2022/01/06 10:55:40;;;;;;;10.53;4.47;;;;;;;5.63;77.00;98911.54;1673177;84;21124;-72
2022/01/06 10:58:14;;;;;;;8.68;4.20;;;;;;;5.72;76.82;98913.81;1678839;84;21549;-73
2022/01/06 11:00:43;;;;;;;8.15;4.25;;;;;;;6.01;73.81;98902.32;1686479;84;21057;-73
2022/01/06 11:03:19;;;;;;;10.32;4.58;;;;;;;6.09;73.42;98904.63;1696688;84;21953;-73
2022/01/06 11:05:53;;;;;;;9.73;3.80;;;;;;;6.24;73.55;98913.66;1669015;84;20995;-72
2022/01/06 11:08:36;;;;;;;8.25;4.17;;;;;;;6.92;71.58;98910.05;1698433;82;21268;-70
2022/01/06 11:13:32;;;;;;;6.12;3.00;;;;;;;7.81;60.89;98909.72;1718746;82;21069;-72
2022/01/06 11:15:58;;;;;;;9.28;4.20;;;;;;;7.53;60.34;98903.09;1738055;82;21094;-73
2022/01/06 11:18:24;;;;;;;8.65;3.98;;;;;;;7.30;58.94;98907.55;1738026;82;21041;-71
2022/01/06 11:20:51;;;;;;;9.40;4.45;;;;;;;6.91;58.55;98913.56;1728002;82;21058;-73
2022/01/06 11:23:22;;;;;;;9.23;4.78;;;;;;;6.43;59.16;98921.63;1723747;81;21085;-71
2022/01/06 11:26:11;;;;;;;9.88;4.50;;;;;;;6.11;61.01;98928.11;1731085;82;21062;-73
2022/01/06 11:28:38;;;;;;;11.00;4.42;;;;;;;5.87;62.15;98932.02;1736169;82;21127;-71
2022/01/06 11:31:21;;;;;;;9.68;4.47;;;;;;;5.65;63.07;98928.86;1659494;85;21625;-71
2022/01/06 11:33:49;;;;;;;10.58;4.78;;;;;;;5.48;64.55;98929.93;1716068;82;21384;-72
2022/01/06 11:36:27;;;;;;;10.95;4.70;;;;;;;5.30;65.43;98918.83;1717926;81;21084;-71
2022/01/06 11:38:53;;;;;;;7.45;4.03;;;;;;;5.07;65.02;98917.02;1716661;82;21588;-72
2022/01/06 11:41:20;;;;;;;7.70;4.28;;;;;;;4.87;65.68;98920.28;1715613;82;21146;-72
2022/01/06 11:43:47;;;;;;;9.03;4.00;;;;;;;4.75;67.15;98911.95;1721151;82;21098;-72
2022/01/06 11:46:14;;;;;;;10.72;4.53;;;;;;;4.67;66.61;98919.19;1724555;82;21061;-71
2022/01/06 11:48:57;;;;;;;7.95;4.35;;;;;;;4.60;67.10;98928.95;1725988;82;21639;-71
2022/01/06 11:51:28;;;;;;;11.85;4.87;;;;;;;4.53;66.64;98950.04;1725566;82;21049;-73
2022/01/06 11:53:56;;;;;;;8.83;3.90;;;;;;;4.39;67.26;98953.95;1715268;82;21139;-73